createdAt,value
2023-05-15T00:00:41.541Z,137.18
2023-05-15T00:01:41.571Z,137.48
2023-05-15T00:02:41.672Z,136.18
2023-05-15T00:03:41.774Z,135.83
2023-05-15T00:04:41.724Z,136.33
2023-05-15T00:05:41.737Z,136.80
2023-05-15T00:06:41.773Z,136.72
2023-05-15T00:07:41.812Z,136.80
2023-05-15T00:08:41.843Z,137.71
2023-05-15T00:09:41.857Z,135.73
2023-05-15T00:10:47.672Z,134.90
2023-05-15T00:11:42.911Z,135.19
2023-05-15T00:12:41.905Z,135.63
2023-05-15T00:13:41.918Z,137.13
2023-05-15T00:14:41.904Z,136.27
2023-05-15T00:15:41.925Z,139.22
2023-05-15T00:16:41.944Z,139.48
2023-05-15T00:17:41.950Z,139.25
2023-05-15T00:18:41.947Z,137.43
2023-05-15T00:19:41.889Z,136.51
2023-05-15T00:20:41.898Z,136.78
2023-05-15T00:21:41.902Z,135.57
2023-05-15T00:22:41.904Z,135.63
2023-05-15T00:23:41.917Z,135.83
2023-05-15T00:24:41.920Z,136.02
2023-05-15T00:25:41.990Z,137.06
2023-05-15T00:26:42.029Z,134.29
2023-05-15T00:27:42.052Z,136.86
2023-05-15T00:28:42.114Z,137.05
2023-05-15T00:29:42.446Z,135.80
2023-05-15T00:30:42.189Z,134.13
2023-05-15T00:31:42.585Z,136.21
2023-05-15T00:32:42.307Z,135.78
2023-05-15T00:33:42.311Z,134.55
2023-05-15T00:34:42.373Z,134.55
2023-05-15T00:35:42.402Z,138.39
2023-05-15T00:36:42.460Z,136.80
2023-05-15T00:37:43.654Z,135.06
2023-05-15T00:38:42.542Z,134.43
2023-05-15T00:39:42.584Z,137.39
2023-05-15T00:40:42.623Z,135.10
2023-05-15T00:41:42.662Z,136.35
2023-05-15T00:42:42.706Z,136.84
2023-05-15T00:43:42.739Z,137.12
2023-05-15T00:44:44.595Z,134.35
2023-05-15T00:45:42.857Z,136.10
2023-05-15T00:46:42.948Z,138.32
2023-05-15T00:47:42.973Z,138.43
2023-05-15T00:48:44.202Z,138.75
2023-05-15T00:49:43.017Z,136.75
2023-05-15T00:50:43.072Z,135.97
2023-05-15T00:51:43.123Z,135.69
2023-05-15T00:52:43.160Z,137.33
2023-05-15T00:53:43.250Z,137.10
2023-05-15T00:54:43.239Z,135.60
2023-05-15T00:55:43.297Z,136.73
2023-05-15T00:56:43.332Z,137.35
2023-05-15T00:57:43.380Z,135.65
2023-05-15T00:58:43.409Z,135.23
2023-05-15T00:59:43.454Z,138.53
2023-05-15T01:00:43.520Z,135.77
2023-05-15T01:01:43.528Z,134.61
2023-05-15T01:02:43.672Z,138.20
2023-05-15T01:03:43.642Z,135.66
2023-05-15T01:04:43.682Z,136.03
2023-05-15T01:05:43.714Z,133.58
2023-05-15T01:06:43.764Z,134.63
2023-05-15T01:07:43.788Z,135.06
2023-05-15T01:08:43.830Z,136.23
2023-05-15T01:09:44.814Z,136.28
2023-05-15T01:10:43.903Z,136.40
2023-05-15T01:11:43.958Z,133.77
2023-05-15T01:12:44.007Z,134.38
2023-05-15T01:13:44.041Z,138.03
2023-05-15T01:14:44.099Z,135.99
2023-05-15T01:15:44.134Z,134.40
2023-05-15T01:16:44.176Z,134.27
2023-05-15T01:17:44.271Z,134.54
2023-05-15T01:18:44.351Z,133.98
2023-05-15T01:19:44.354Z,133.20
2023-05-15T01:20:44.347Z,135.38
2023-05-15T01:21:44.403Z,136.02
2023-05-15T01:22:44.451Z,137.01
2023-05-15T01:23:44.485Z,136.21
2023-05-15T01:24:44.529Z,134.66
2023-05-15T01:25:44.562Z,135.17
2023-05-15T01:26:44.606Z,136.40
2023-05-15T01:27:44.640Z,135.04
2023-05-15T01:28:44.692Z,133.80
2023-05-15T01:29:44.731Z,132.46
2023-05-15T01:30:44.794Z,135.42
2023-05-15T01:31:44.834Z,133.77
2023-05-15T01:32:46.669Z,135.83
2023-05-15T01:33:44.885Z,135.26
2023-05-15T01:34:44.945Z,132.58
2023-05-15T01:35:44.961Z,134.94
2023-05-15T01:36:45.004Z,134.33
2023-05-15T01:37:45.049Z,134.09
2023-05-15T01:38:45.095Z,133.29
2023-05-15T01:39:45.143Z,132.76
2023-05-15T01:40:45.200Z,134.30
2023-05-15T01:41:45.224Z,132.59
2023-05-15T01:42:45.272Z,130.31
2023-05-15T01:43:45.304Z,136.06
2023-05-15T01:44:45.332Z,133.60
2023-05-15T01:45:45.365Z,135.24
2023-05-15T01:46:45.483Z,133.18
2023-05-15T01:47:45.424Z,133.33
2023-05-15T01:48:45.429Z,133.30
2023-05-15T01:49:45.465Z,134.05
2023-05-15T01:50:45.481Z,132.25
2023-05-15T01:51:45.497Z,135.04
2023-05-15T01:52:45.524Z,130.34
2023-05-15T01:53:45.555Z,132.49
2023-05-15T01:54:45.583Z,131.96
2023-05-15T01:55:45.609Z,131.62
2023-05-15T01:56:45.629Z,134.71
2023-05-15T01:57:45.663Z,133.10
2023-05-15T01:58:46.722Z,135.21
2023-05-15T01:59:45.738Z,133.13
2023-05-15T02:00:46.147Z,134.57
2023-05-15T02:01:45.964Z,133.04
2023-05-15T02:02:45.854Z,134.04
2023-05-15T02:03:45.934Z,135.02
2023-05-15T02:04:45.779Z,130.72
2023-05-15T02:05:45.801Z,131.26
2023-05-15T02:06:45.825Z,132.70
2023-05-15T02:07:45.847Z,133.79
2023-05-15T02:08:45.866Z,133.07
2023-05-15T02:09:45.874Z,132.00
2023-05-15T02:10:45.895Z,134.25
2023-05-15T02:11:45.890Z,134.23
2023-05-15T02:12:45.918Z,134.24
2023-05-15T02:13:45.938Z,133.79
2023-05-15T02:14:48.309Z,130.22
2023-05-15T02:15:45.987Z,131.98
2023-05-15T02:16:46.122Z,132.60
2023-05-15T02:17:46.058Z,135.49
2023-05-15T02:18:46.067Z,133.47
2023-05-15T02:19:46.071Z,133.20
2023-05-15T02:20:46.101Z,134.37
2023-05-15T02:21:47.244Z,130.25
2023-05-15T02:22:46.144Z,134.00
2023-05-15T02:23:46.373Z,130.34
2023-05-15T02:24:46.302Z,131.17
2023-05-15T02:25:46.201Z,136.51
2023-05-15T02:26:46.220Z,134.07
2023-05-15T02:27:46.258Z,135.88
2023-05-15T02:28:46.320Z,134.10
2023-05-15T02:29:46.359Z,134.45
2023-05-15T02:30:46.409Z,132.91
2023-05-15T02:31:46.471Z,133.43
2023-05-15T02:32:46.521Z,132.40
2023-05-15T02:33:46.543Z,132.61
2023-05-15T02:34:46.581Z,132.39
2023-05-15T02:35:46.633Z,132.23
2023-05-15T02:36:46.657Z,131.69
2023-05-15T02:37:46.699Z,130.97
2023-05-15T02:38:46.734Z,134.93
2023-05-15T02:39:46.780Z,134.13
2023-05-15T02:40:46.796Z,131.88
2023-05-15T02:41:46.823Z,133.24
2023-05-15T02:42:46.821Z,132.78
2023-05-15T02:43:46.855Z,133.80
2023-05-15T02:44:46.866Z,132.92
2023-05-15T02:45:46.920Z,131.88
2023-05-15T02:46:46.955Z,134.29
2023-05-15T02:47:47.004Z,132.59
2023-05-15T02:48:47.036Z,133.09
2023-05-15T02:49:47.091Z,134.52
2023-05-15T02:50:47.129Z,133.60
2023-05-15T02:51:47.175Z,132.60
2023-05-15T02:52:47.200Z,134.96
2023-05-15T02:53:48.143Z,134.49
2023-05-15T02:54:47.283Z,133.26
2023-05-15T02:55:47.295Z,133.52
2023-05-15T02:56:47.342Z,133.72
2023-05-15T02:57:47.379Z,133.82
2023-05-15T02:58:47.420Z,131.01
2023-05-15T02:59:47.419Z,131.93
2023-05-15T03:00:47.494Z,132.00
2023-05-15T03:01:47.507Z,131.74
2023-05-15T03:02:47.862Z,133.46
2023-05-15T03:03:47.574Z,130.64
2023-05-15T03:04:48.112Z,134.67
2023-05-15T03:05:47.612Z,133.61
2023-05-15T03:06:47.635Z,132.46
2023-05-15T03:07:47.658Z,132.57
2023-05-15T03:08:47.670Z,131.91
2023-05-15T03:09:47.691Z,131.34
2023-05-15T03:10:47.708Z,132.15
2023-05-15T03:11:47.737Z,133.80
2023-05-15T03:12:47.756Z,131.04
2023-05-15T03:13:47.768Z,131.69
2023-05-15T03:14:47.786Z,133.13
2023-05-15T03:15:47.809Z,130.80
2023-05-15T03:16:47.848Z,132.89
2023-05-15T03:17:48.875Z,133.11
2023-05-15T03:18:47.909Z,133.42
2023-05-15T03:19:47.844Z,133.77
2023-05-15T03:20:47.862Z,134.56
2023-05-15T03:21:47.853Z,134.03
2023-05-15T03:22:47.843Z,130.37
2023-05-15T03:23:47.861Z,134.99
2023-05-15T03:24:47.853Z,131.33
2023-05-15T03:25:48.041Z,128.49
2023-05-15T03:26:47.845Z,130.28
2023-05-15T03:27:47.837Z,131.01
2023-05-15T03:28:47.857Z,129.16
2023-05-15T03:29:47.839Z,132.54
2023-05-15T03:30:47.886Z,130.63
2023-05-15T03:31:47.903Z,132.76
2023-05-15T03:32:48.943Z,132.49
2023-05-15T03:33:47.862Z,135.73
2023-05-15T03:34:47.861Z,131.48
2023-05-15T03:35:47.865Z,131.36
2023-05-15T03:36:47.873Z,128.46
2023-05-15T03:37:47.876Z,131.42
2023-05-15T03:38:48.889Z,129.93
2023-05-15T03:39:47.892Z,128.32
2023-05-15T03:40:50.249Z,131.40
2023-05-15T03:41:47.905Z,132.46
2023-05-15T03:42:48.705Z,132.64
2023-05-15T03:43:47.907Z,133.23
2023-05-15T03:44:47.919Z,133.11
2023-05-15T03:45:47.933Z,130.85
2023-05-15T03:46:47.954Z,131.57
2023-05-15T03:47:47.995Z,131.53
2023-05-15T03:48:48.769Z,129.99
2023-05-15T03:49:47.953Z,130.20
2023-05-15T03:50:47.988Z,130.81
2023-05-15T03:51:47.979Z,131.13
2023-05-15T03:52:47.986Z,131.48
2023-05-15T03:53:47.991Z,129.07
2023-05-15T03:54:48.014Z,129.75
2023-05-15T03:55:48.024Z,128.42
2023-05-15T03:56:48.036Z,131.09
2023-05-15T03:57:48.045Z,132.17
2023-05-15T03:58:48.049Z,131.53
2023-05-15T03:59:49.255Z,130.93
2023-05-15T04:00:48.073Z,132.40
2023-05-15T04:02:02.736Z,132.42
2023-05-15T04:02:49.138Z,132.62
2023-05-15T04:03:49.080Z,132.91
2023-05-15T04:04:48.103Z,133.85
2023-05-15T04:05:48.088Z,135.95
2023-05-15T04:06:48.098Z,135.36
2023-05-15T04:07:48.098Z,136.63
2023-05-15T04:08:48.109Z,134.17
2023-05-15T04:09:48.124Z,133.73
2023-05-15T04:10:50.223Z,132.75
2023-05-15T04:11:48.140Z,132.26
2023-05-15T04:12:48.130Z,133.68
2023-05-15T04:13:48.119Z,131.63
2023-05-15T04:14:48.141Z,130.33
2023-05-15T04:15:48.149Z,133.01
2023-05-15T04:16:48.289Z,134.80
2023-05-15T04:17:50.027Z,134.80
2023-05-15T04:18:48.279Z,130.42
2023-05-15T04:19:48.174Z,130.67
2023-05-15T04:20:48.205Z,130.16
2023-05-15T04:21:48.222Z,130.74
2023-05-15T04:22:48.555Z,130.90
2023-05-15T04:23:48.229Z,129.19
2023-05-15T04:24:48.248Z,133.39
2023-05-15T04:25:48.257Z,131.22
2023-05-15T04:26:48.376Z,129.33
2023-05-15T04:27:48.263Z,130.19
2023-05-15T04:29:00.251Z,130.04
2023-05-15T04:29:49.285Z,130.30
2023-05-15T04:30:48.295Z,130.69
2023-05-15T04:31:48.317Z,130.49
2023-05-15T04:32:48.321Z,129.89
2023-05-15T04:33:49.285Z,133.00
2023-05-15T04:34:48.317Z,131.86
2023-05-15T04:35:48.331Z,129.23
2023-05-15T04:36:48.382Z,130.84
2023-05-15T04:37:49.004Z,133.52
2023-05-15T04:38:48.492Z,127.18
2023-05-15T04:39:49.511Z,129.44
2023-05-15T04:40:48.846Z,131.66
2023-05-15T04:41:48.567Z,130.89
2023-05-15T04:42:48.724Z,129.06
2023-05-15T04:43:48.616Z,128.65
2023-05-15T04:44:49.832Z,130.89
2023-05-15T04:45:48.713Z,128.45
2023-05-15T04:46:48.717Z,129.45
2023-05-15T04:47:48.758Z,130.12
2023-05-15T04:48:48.777Z,126.70
2023-05-15T04:49:48.800Z,130.64
2023-05-15T04:50:48.823Z,128.95
2023-05-15T04:51:48.895Z,130.23
2023-05-15T04:52:48.896Z,127.09
2023-05-15T04:53:48.946Z,127.09
2023-05-15T04:54:48.990Z,130.28
2023-05-15T04:55:49.021Z,128.93
2023-05-15T04:56:49.061Z,130.35
2023-05-15T04:57:49.067Z,131.49
2023-05-15T04:58:50.178Z,128.14
2023-05-15T04:59:49.194Z,127.15
2023-05-15T05:00:49.216Z,128.09
2023-05-15T05:01:49.282Z,128.33
2023-05-15T05:02:49.355Z,126.73
2023-05-15T05:03:49.383Z,128.57
2023-05-15T05:04:49.397Z,129.68
2023-05-15T05:05:49.457Z,125.74
2023-05-15T05:06:49.513Z,128.50
2023-05-15T05:07:49.558Z,127.19
2023-05-15T05:08:49.601Z,127.28
2023-05-15T05:09:50.734Z,125.61
2023-05-15T05:10:49.714Z,126.90
2023-05-15T05:11:50.062Z,127.30
2023-05-15T05:12:50.053Z,127.91
2023-05-15T05:13:49.838Z,125.96
2023-05-15T05:14:49.866Z,125.59
2023-05-15T05:15:49.980Z,128.55
2023-05-15T05:16:49.930Z,127.64
2023-05-15T05:17:49.990Z,126.58
2023-05-15T05:18:50.078Z,127.00
2023-05-15T05:19:50.023Z,126.96
2023-05-15T05:20:50.070Z,158.94
2023-05-15T05:21:50.127Z,221.25
2023-05-15T05:22:50.166Z,198.18
2023-05-15T05:23:50.202Z,194.19
2023-05-15T05:24:50.272Z,212.23
2023-05-15T05:25:50.306Z,232.19
2023-05-15T05:26:50.352Z,246.39
2023-05-15T05:27:50.413Z,249.51
2023-05-15T05:28:50.509Z,249.09
2023-05-15T05:29:51.576Z,250.00
2023-05-15T05:30:50.611Z,247.15
2023-05-15T05:31:50.819Z,245.87
2023-05-15T05:32:50.791Z,247.68
2023-05-15T05:33:50.764Z,249.54
2023-05-15T05:34:51.781Z,249.69
2023-05-15T05:35:50.794Z,250.09
2023-05-15T05:36:50.809Z,250.61
2023-05-15T05:37:50.820Z,252.59
2023-05-15T05:38:50.837Z,251.71
2023-05-15T05:39:50.841Z,248.59
2023-05-15T05:40:50.849Z,247.14
2023-05-15T05:41:50.854Z,247.31
2023-05-15T05:42:50.875Z,246.12
2023-05-15T05:43:50.916Z,246.38
2023-05-15T05:44:50.977Z,247.21
2023-05-15T05:45:51.024Z,246.89
2023-05-15T05:46:51.122Z,247.97
2023-05-15T05:47:51.257Z,249.14
2023-05-15T05:48:51.238Z,248.42
2023-05-15T05:49:51.299Z,247.25
2023-05-15T05:50:51.347Z,244.66
2023-05-15T05:51:51.395Z,247.43
2023-05-15T05:52:51.426Z,247.80
2023-05-15T05:53:51.492Z,248.36
2023-05-15T05:54:51.566Z,246.72
2023-05-15T05:55:51.608Z,249.33
2023-05-15T05:56:51.681Z,247.78
2023-05-15T05:57:51.732Z,248.29
2023-05-15T05:58:51.781Z,247.26
2023-05-15T05:59:51.847Z,246.68
2023-05-15T06:00:51.924Z,247.91
2023-05-15T06:01:51.966Z,247.40
2023-05-15T06:02:52.160Z,248.03
2023-05-15T06:03:52.152Z,246.75
2023-05-15T06:04:52.371Z,248.08
2023-05-15T06:05:52.151Z,246.39
2023-05-15T06:06:52.207Z,247.20
2023-05-15T06:07:52.224Z,249.08
2023-05-15T06:08:53.726Z,248.45
2023-05-15T06:09:52.300Z,245.09
2023-05-15T06:10:52.295Z,246.00
2023-05-15T06:11:52.327Z,242.60
2023-05-15T06:12:52.320Z,245.00
2023-05-15T06:13:52.302Z,243.71
2023-05-15T06:14:52.302Z,245.31
2023-05-15T06:15:52.306Z,242.30
2023-05-15T06:16:52.341Z,245.26
2023-05-15T06:17:52.378Z,243.69
2023-05-15T06:18:52.320Z,241.55
2023-05-15T06:19:52.291Z,241.79
2023-05-15T06:20:52.290Z,239.67
2023-05-15T06:21:52.585Z,245.04
2023-05-15T06:22:52.297Z,246.46
2023-05-15T06:23:52.294Z,248.60
2023-05-15T06:24:52.297Z,247.14
2023-05-15T06:25:52.293Z,250.00
2023-05-15T06:26:52.573Z,247.47
2023-05-15T06:27:52.299Z,212.55
2023-05-15T06:28:52.305Z,185.35
2023-05-15T06:29:52.300Z,167.32
2023-05-15T06:30:52.342Z,150.91
2023-05-15T06:31:52.320Z,140.82
2023-05-15T06:32:52.371Z,120.55
2023-05-15T06:33:52.361Z,107.81
2023-05-15T06:34:52.335Z,96.37
2023-05-15T06:35:52.342Z,83.88
2023-05-15T06:36:52.353Z,83.19
2023-05-15T06:37:52.364Z,80.20
2023-05-15T06:38:52.369Z,70.49
2023-05-15T06:39:52.391Z,84.24
2023-05-15T06:40:53.988Z,60.49
2023-05-15T06:41:52.400Z,42.94
2023-05-15T06:42:52.409Z,31.69
2023-05-15T06:43:52.420Z,29.24
2023-05-15T06:44:52.432Z,25.00
2023-05-15T06:45:52.475Z,25.00
2023-05-15T06:46:52.472Z,31.99
2023-05-15T06:47:52.534Z,31.73
2023-05-15T06:48:52.479Z,34.53
2023-05-15T06:49:52.471Z,37.33
2023-05-15T06:50:52.517Z,33.40
2023-05-15T06:51:52.506Z,35.52
2023-05-15T06:52:52.599Z,44.74
2023-05-15T06:53:52.520Z,57.26
2023-05-15T06:54:52.515Z,70.10
2023-05-15T06:55:52.547Z,79.77
2023-05-15T06:56:52.563Z,80.73
2023-05-15T06:57:52.554Z,83.06
2023-05-15T06:58:52.565Z,83.43
2023-05-15T06:59:52.566Z,85.58
2023-05-15T07:00:54.128Z,88.80
2023-05-15T07:01:52.614Z,92.09
2023-05-15T07:02:52.628Z,85.13
2023-05-15T07:03:52.601Z,84.08
2023-05-15T07:04:52.637Z,82.94
2023-05-15T07:05:52.725Z,83.77
2023-05-15T07:06:52.584Z,83.74
2023-05-15T07:07:52.568Z,85.80
2023-05-15T07:08:52.567Z,94.46
2023-05-15T07:09:53.496Z,89.28
2023-05-15T07:10:52.557Z,86.66
2023-05-15T07:11:52.569Z,86.75
2023-05-15T07:12:52.572Z,98.82
2023-05-15T07:13:52.774Z,107.79
2023-05-15T07:14:52.585Z,110.06
2023-05-15T07:15:52.588Z,115.45
2023-05-15T07:16:52.619Z,121.33
2023-05-15T07:17:52.671Z,125.75
2023-05-15T07:18:52.648Z,130.82
2023-05-15T07:19:52.576Z,142.94
2023-05-15T07:20:52.575Z,147.79
2023-05-15T07:21:52.598Z,153.70
2023-05-15T07:22:56.720Z,158.48
2023-05-15T07:23:52.573Z,158.83
2023-05-15T07:24:52.566Z,160.66
2023-05-15T07:25:52.564Z,163.59
2023-05-15T07:26:58.792Z,170.63
2023-05-15T07:27:53.586Z,159.39
2023-05-15T07:28:52.565Z,162.35
2023-05-15T07:29:52.568Z,168.37
2023-05-15T07:30:52.596Z,175.55
2023-05-15T07:31:52.619Z,186.87
2023-05-15T07:32:52.575Z,190.34
2023-05-15T07:33:52.559Z,189.62
2023-05-15T07:34:52.560Z,190.30
2023-05-15T07:35:52.556Z,191.90
2023-05-15T07:36:52.563Z,192.23
2023-05-15T07:37:52.632Z,193.12
2023-05-15T07:38:52.668Z,193.13
2023-05-15T07:39:52.792Z,193.97
2023-05-15T07:40:52.791Z,194.23
2023-05-15T07:41:52.852Z,195.13
2023-05-15T07:42:52.920Z,196.75
2023-05-15T07:43:52.973Z,196.15
2023-05-15T07:44:53.028Z,196.89
2023-05-15T07:45:53.229Z,196.75
2023-05-15T07:46:53.141Z,197.78
2023-05-15T07:47:53.265Z,199.19
2023-05-15T07:48:53.249Z,199.74
2023-05-15T07:49:53.287Z,198.63
2023-05-15T07:50:53.338Z,198.18
2023-05-15T07:51:53.388Z,196.72
2023-05-15T07:52:53.415Z,196.39
2023-05-15T07:53:53.479Z,200.79
2023-05-15T07:54:53.513Z,201.67
2023-05-15T07:55:53.563Z,200.37
2023-05-15T07:56:53.673Z,201.80
2023-05-15T07:57:54.068Z,204.19
2023-05-15T07:58:53.753Z,206.52
2023-05-15T07:59:54.517Z,206.30
2023-05-15T08:00:53.805Z,205.73
2023-05-15T08:01:53.897Z,207.65
2023-05-15T08:02:54.700Z,208.29
2023-05-15T08:03:54.049Z,208.36
2023-05-15T08:04:53.995Z,206.48
2023-05-15T08:05:55.025Z,207.91
2023-05-15T08:06:54.103Z,208.54
2023-05-15T08:07:54.154Z,209.12
2023-05-15T08:08:54.220Z,209.90
2023-05-15T08:09:54.273Z,208.78
2023-05-15T08:10:54.321Z,208.09
2023-05-15T08:11:54.366Z,208.06
2023-05-15T08:12:54.436Z,208.31
2023-05-15T08:13:55.147Z,210.69
2023-05-15T08:14:54.553Z,209.73
2023-05-15T08:15:55.606Z,210.75
2023-05-15T08:16:54.662Z,210.50
2023-05-15T08:17:54.811Z,212.65
2023-05-15T08:18:54.816Z,212.88
2023-05-15T08:19:54.840Z,214.20
2023-05-15T08:20:55.076Z,216.14
2023-05-15T08:21:54.928Z,216.14
2023-05-15T08:22:55.521Z,215.99
2023-05-15T08:23:55.037Z,216.31
2023-05-15T08:24:55.092Z,216.66
2023-05-15T08:25:55.134Z,216.70
2023-05-15T08:26:55.182Z,218.01
2023-05-15T08:27:55.238Z,219.48
2023-05-15T08:28:55.339Z,221.03
2023-05-15T08:29:56.146Z,222.10
2023-05-15T08:30:56.185Z,222.18
2023-05-15T08:31:55.411Z,223.08
2023-05-15T08:32:55.519Z,224.50
2023-05-15T08:33:55.523Z,224.80
2023-05-15T08:34:55.539Z,222.85
2023-05-15T08:35:55.698Z,226.32
2023-05-15T08:36:55.645Z,224.01
2023-05-15T08:37:55.697Z,225.72
2023-05-15T08:38:55.749Z,225.23
2023-05-15T08:39:55.785Z,225.52
2023-05-15T08:40:55.829Z,225.44
2023-05-15T08:41:55.893Z,225.69
2023-05-15T08:42:56.602Z,227.11
2023-05-15T08:43:56.008Z,225.25
2023-05-15T08:44:56.101Z,226.07
2023-05-15T08:45:56.120Z,226.95
2023-05-15T08:46:56.189Z,226.52
2023-05-15T08:47:56.312Z,226.61
2023-05-15T08:48:56.383Z,225.76
2023-05-15T08:49:56.341Z,227.60
2023-05-15T08:50:56.400Z,226.81
2023-05-15T08:51:56.472Z,227.09
2023-05-15T08:52:56.525Z,227.39
2023-05-15T08:53:56.570Z,227.02
2023-05-15T08:54:56.640Z,225.91
2023-05-15T08:55:56.743Z,227.71
2023-05-15T08:56:56.767Z,226.54
2023-05-15T08:57:56.850Z,227.08
2023-05-15T08:58:56.901Z,227.75
2023-05-15T08:59:56.967Z,226.86
2023-05-15T09:00:58.619Z,227.14
2023-05-15T09:01:57.191Z,226.80
2023-05-15T09:02:57.224Z,225.04
2023-05-15T09:03:57.287Z,225.70
2023-05-15T09:04:57.290Z,223.94
2023-05-15T09:05:57.353Z,225.36
2023-05-15T09:06:57.424Z,225.71
2023-05-15T09:07:57.493Z,225.61
2023-05-15T09:08:57.569Z,227.25
2023-05-15T09:09:57.616Z,225.86
2023-05-15T09:10:57.682Z,226.04
2023-05-15T09:11:57.745Z,225.04
2023-05-15T09:12:57.810Z,224.82
2023-05-15T09:13:57.868Z,224.81
2023-05-15T09:14:57.934Z,223.97
2023-05-15T09:15:58.008Z,224.91
2023-05-15T09:16:58.081Z,225.74
2023-05-15T09:17:58.186Z,224.49
2023-05-15T09:18:58.273Z,224.65
2023-05-15T09:19:58.270Z,224.50
2023-05-15T09:20:58.333Z,226.93
2023-05-15T09:21:58.505Z,234.08
2023-05-15T09:22:59.058Z,234.61
2023-05-15T09:23:58.397Z,235.12
2023-05-15T09:24:58.406Z,240.93
2023-05-15T09:25:58.456Z,242.89
2023-05-15T09:26:58.406Z,243.69
2023-05-15T09:27:58.418Z,249.91
2023-05-15T09:28:58.445Z,249.54
2023-05-15T09:29:58.397Z,250.00
2023-05-15T09:30:58.391Z,266.23
2023-05-15T09:31:58.410Z,248.87
2023-05-15T09:32:58.422Z,241.76
2023-05-15T09:33:59.131Z,248.76
2023-05-15T09:34:58.413Z,246.96
2023-05-15T09:35:58.511Z,242.89
2023-05-15T09:36:58.439Z,246.82
2023-05-15T09:37:59.445Z,247.05
2023-05-15T09:38:58.495Z,248.08
2023-05-15T09:39:58.412Z,250.16
2023-05-15T09:40:58.406Z,254.03
2023-05-15T09:41:58.444Z,260.26
2023-05-15T09:42:58.403Z,250.00
2023-05-15T09:43:58.391Z,250.00
2023-05-15T09:44:58.397Z,250.00
2023-05-15T09:45:58.476Z,248.25
2023-05-15T09:46:58.471Z,249.10
2023-05-15T09:47:58.561Z,250.00
2023-05-15T09:48:58.405Z,249.94
2023-05-15T09:49:58.330Z,254.84
2023-05-15T09:50:58.395Z,245.83
2023-05-15T09:51:58.294Z,246.61
2023-05-15T09:52:58.273Z,247.19
2023-05-15T09:53:58.262Z,250.09
2023-05-15T09:54:58.266Z,250.39
2023-05-15T09:55:58.232Z,251.69
2023-05-15T09:56:58.236Z,244.53
2023-05-15T09:57:58.311Z,241.66
2023-05-15T09:58:58.444Z,241.61
2023-05-15T09:59:58.358Z,242.56
2023-05-15T10:00:58.399Z,242.94
2023-05-15T10:01:58.559Z,247.33
2023-05-15T10:02:58.516Z,246.70
2023-05-15T10:03:58.538Z,245.11
2023-05-15T10:04:58.672Z,246.89
2023-05-15T10:05:58.668Z,248.99
2023-05-15T10:06:58.724Z,249.51
2023-05-15T10:07:58.732Z,248.51
2023-05-15T10:08:58.786Z,248.37
2023-05-15T10:09:58.833Z,250.26
2023-05-15T10:10:58.893Z,248.57
2023-05-15T10:11:58.927Z,248.53
2023-05-15T10:12:58.952Z,248.33
2023-05-15T10:13:59.001Z,246.08
2023-05-15T10:14:59.057Z,247.94
2023-05-15T10:15:59.265Z,249.49
2023-05-15T10:16:59.173Z,248.34
2023-05-15T10:17:59.285Z,250.99
2023-05-15T10:18:59.291Z,248.95
2023-05-15T10:19:59.371Z,248.13
2023-05-15T10:21:00.163Z,249.29
2023-05-15T10:21:59.438Z,246.20
2023-05-15T10:22:59.476Z,246.32
2023-05-15T10:23:59.534Z,243.00
2023-05-15T10:24:59.561Z,242.26
2023-05-15T10:25:59.591Z,242.60
2023-05-15T10:26:59.635Z,242.88
2023-05-15T10:27:59.690Z,243.97
2023-05-15T10:28:59.712Z,245.92
2023-05-15T10:30:01.082Z,243.66
2023-05-15T10:30:59.713Z,245.06
2023-05-15T10:31:59.666Z,241.52
2023-05-15T10:32:59.718Z,245.99
2023-05-15T10:33:59.634Z,243.84
2023-05-15T10:34:59.614Z,240.73
2023-05-15T10:35:59.605Z,235.41
2023-05-15T10:36:59.594Z,250.00
2023-05-15T10:37:59.574Z,243.54
2023-05-15T10:38:59.576Z,243.03
2023-05-15T10:39:59.547Z,246.04
2023-05-15T10:41:13.152Z,243.75
2023-05-15T10:42:00.517Z,243.78
2023-05-15T10:42:59.521Z,243.94
2023-05-15T10:43:59.563Z,242.15
2023-05-15T10:44:59.477Z,241.27
2023-05-15T10:45:59.486Z,233.03
2023-05-15T10:46:59.446Z,235.81
2023-05-15T10:47:59.511Z,236.44
2023-05-15T10:48:59.404Z,239.56
2023-05-15T10:50:00.127Z,239.29
2023-05-15T10:50:59.387Z,237.60
2023-05-15T10:51:59.364Z,239.49
2023-05-15T10:52:59.363Z,243.74
2023-05-15T10:53:59.363Z,241.58
2023-05-15T10:54:59.337Z,242.48
2023-05-15T10:55:59.360Z,244.98
2023-05-15T10:56:59.310Z,234.75
2023-05-15T10:57:59.286Z,245.95
2023-05-15T10:58:59.319Z,239.96
2023-05-15T10:59:59.329Z,234.76
2023-05-15T11:00:59.419Z,231.39
2023-05-15T11:01:59.386Z,236.12
2023-05-15T11:02:59.437Z,234.92
2023-05-15T11:03:59.418Z,231.03
2023-05-15T11:04:59.429Z,236.95
2023-05-15T11:05:59.426Z,232.64
2023-05-15T11:06:59.441Z,225.53
2023-05-15T11:07:59.467Z,223.95
2023-05-15T11:08:59.480Z,211.78
2023-05-15T11:09:59.511Z,206.18
2023-05-15T11:10:59.535Z,197.18
2023-05-15T11:11:59.559Z,191.12
2023-05-15T11:12:59.611Z,185.76
2023-05-15T11:13:59.630Z,180.53
2023-05-15T11:14:59.668Z,175.53
2023-05-15T11:15:59.711Z,174.02
2023-05-15T11:16:59.814Z,168.56
2023-05-15T11:17:59.842Z,166.81
2023-05-15T11:18:59.873Z,166.70
2023-05-15T11:19:59.950Z,164.07
2023-05-15T11:20:59.986Z,163.95
2023-05-15T11:22:00.046Z,163.89
2023-05-15T11:23:00.094Z,162.25
2023-05-15T11:24:00.162Z,160.63
2023-05-15T11:25:00.154Z,158.87
2023-05-15T11:26:00.233Z,158.70
2023-05-15T11:27:00.201Z,155.85
2023-05-15T11:28:00.236Z,150.38
2023-05-15T11:29:01.197Z,153.10
2023-05-15T11:30:00.264Z,167.57
2023-05-15T11:31:00.337Z,173.62
2023-05-15T11:32:00.280Z,165.46
2023-05-15T11:33:00.316Z,162.86
2023-05-15T11:34:00.291Z,165.27
2023-05-15T11:35:00.313Z,164.32
2023-05-15T11:36:00.282Z,163.61
2023-05-15T11:37:00.284Z,162.14
2023-05-15T11:38:00.326Z,162.63
2023-05-15T11:39:00.311Z,165.99
2023-05-15T11:40:00.299Z,169.87
2023-05-15T11:41:00.325Z,172.33
2023-05-15T11:42:01.071Z,177.26
2023-05-15T11:43:00.296Z,180.58
2023-05-15T11:44:00.301Z,184.94
2023-05-15T11:45:00.310Z,186.59
2023-05-15T11:46:00.327Z,188.73
2023-05-15T11:47:00.363Z,190.51
2023-05-15T11:48:00.366Z,192.51
2023-05-15T11:49:01.200Z,193.71
2023-05-15T11:51:19.528Z,25.00
2023-05-15T11:52:19.539Z,25.00
2023-05-15T11:53:19.534Z,25.00
2023-05-15T11:54:19.544Z,25.00
2023-05-15T11:55:19.542Z,25.00
2023-05-15T11:56:19.552Z,25.62
2023-05-15T11:57:19.624Z,25.70
2023-05-15T11:58:19.676Z,25.82
2023-05-15T11:59:19.701Z,26.15
2023-05-15T12:00:19.729Z,26.99
2023-05-15T12:01:19.753Z,25.83
2023-05-15T12:02:19.782Z,29.15
2023-05-15T12:03:19.893Z,28.48
2023-05-15T12:04:30.751Z,28.05
2023-05-15T12:05:19.871Z,28.59
2023-05-15T12:06:19.884Z,29.86
2023-05-15T12:07:19.884Z,30.85
2023-05-15T12:08:19.910Z,32.46
2023-05-15T12:09:19.930Z,31.50
2023-05-15T12:10:19.948Z,30.46
2023-05-15T12:11:19.925Z,31.88
2023-05-15T12:12:19.943Z,31.87
2023-05-15T12:13:19.942Z,28.98
2023-05-15T12:14:19.951Z,32.06
2023-05-15T12:15:19.954Z,31.97
2023-05-15T12:16:19.987Z,32.10
2023-05-15T12:17:21.921Z,32.52
2023-05-15T12:18:19.965Z,30.76
2023-05-15T12:19:20.031Z,31.63
2023-05-15T12:20:19.978Z,31.24
2023-05-15T12:21:19.981Z,32.44
2023-05-15T12:22:19.996Z,32.26
2023-05-15T12:23:20.009Z,33.54
2023-05-15T12:24:21.732Z,33.47
2023-05-15T12:25:20.070Z,33.28
2023-05-15T12:26:20.119Z,34.04
2023-05-15T12:27:20.196Z,34.37
2023-05-15T12:28:20.218Z,32.77
2023-05-15T12:29:23.978Z,33.81
2023-05-15T12:30:20.251Z,37.10
2023-05-15T12:31:21.403Z,35.54
2023-05-15T12:32:20.256Z,36.86
2023-05-15T12:33:20.260Z,35.91